LRSV/SCV METAR and TAF weather

Enter ICAO airport designator
Station Type Date Time Source
LRSV METAR 2021/03/01 21:30 UTC NOAA

LRSV 012130Z 32008KT 9999 OVC032 02/M00 Q1033 R16/29//95


Station Type Date Time Source
LRSV Decoded METAR 2021/03/01 21:30 UTC NOAA

Suceava / Salcea, Romania (LRSV) 47-39N 026-15E 351M
Mar 01, 2021 - 04:30 PM EST / 2021.03.01 2130 UTC
Wind: from the NW (320 degrees) at 9 MPH (8 KT):0
Visibility: greater than 7 mile(s):0
Sky conditions: overcast
Temperature: 35 F (2 C)
Windchill: 28 F (-2 C):1
Dew Point: 32 F (0 C)
Relative Humidity: 86%
Pressure (altimeter): 30.50 in. Hg (1033 hPa)
ob: LRSV 012130Z 32008KT 9999 OVC032 02/M00 Q1033 R16/29//95
cycle: 21

Station Type Date Time Source
LRSV TAF 2014/07/19 18:48 UTC NOAA

TAF LRSV 191800Z 1918/2024 CNL

Example: see airport list